Time;durP1;ratioP1;P1;durP2;ratioP2;P2;SDS_P1;SDS_P2;PMS_P1;PMS_P2;Temp;Humidity;BMP_temperature;BMP_pressure;BME280_temperature;BME280_humidity;BME280_pressure;Samples;Min_cycle;Max_cycle;Signal;HPM_P1;HPM_P2
2023/04/30 00:01:17;;;;;;;11.43;9.93;;;12.60;99.90;;;;;;10520613;28;20225;-70
2023/04/30 00:06:18;;;;;;;12.23;10.70;;;12.60;99.90;;;;;;10495002;28;20324;-70
2023/04/30 00:11:18;;;;;;;12.10;10.90;;;12.50;99.90;;;;;;10512958;28;20271;-70
2023/04/30 00:16:19;;;;;;;11.63;10.47;;;12.50;99.90;;;;;;10494864;28;20271;-71
2023/04/30 00:21:19;;;;;;;11.07;9.97;;;12.50;99.90;;;;;;10494562;28;20226;-71
2023/04/30 00:26:20;;;;;;;10.97;9.27;;;12.50;99.90;;;;;;10512734;28;20244;-71
2023/04/30 00:31:21;;;;;;;11.07;9.77;;;12.50;99.90;;;;;;10512607;28;20219;-70
2023/04/30 00:36:21;;;;;;;11.37;10.17;;;12.50;99.90;;;;;;10512251;28;20256;-71
2023/04/30 00:41:23;;;;;;;12.33;10.93;;;12.40;99.90;;;;;;10486714;28;20289;-70
2023/04/30 00:46:23;;;;;;;11.97;10.53;;;12.50;99.90;;;;;;10511770;28;20219;-70
2023/04/30 00:51:25;;;;;;;11.43;10.40;;;12.40;99.90;;;;;;10491889;28;20218;-70
2023/04/30 00:56:26;;;;;;;12.63;11.43;;;12.40;99.90;;;;;;10505710;28;20219;-71
2023/04/30 01:01:30;;;;;;;13.40;11.93;;;12.40;99.90;;;;;;10519546;28;20230;-73
2023/04/30 01:06:31;;;;;;;13.83;12.43;;;12.40;99.90;;;;;;10514967;28;20214;-75
2023/04/30 01:12:07;;;;;;;13.17;11.87;;;12.30;99.90;;;;;;10493872;28;20319;-74
2023/04/30 01:17:28;;;;;;;13.33;12.03;;;12.30;99.90;;;;;;10512601;28;20229;-74
2023/04/30 01:23:01;;;;;;;12.83;11.43;;;12.30;99.90;;;;;;10510864;28;20419;-75
2023/04/30 01:28:05;;;;;;;13.83;12.40;;;12.30;99.90;;;;;;10491489;28;20257;-75
2023/04/30 01:33:06;;;;;;;13.27;11.93;;;12.30;99.90;;;;;;10494052;28;20214;-75
2023/04/30 01:38:26;;;;;;;14.00;12.60;;;12.30;99.90;;;;;;10493704;28;20223;-75
2023/04/30 01:43:37;;;;;;;15.33;12.87;;;12.30;99.90;;;;;;10508386;28;20226;-74
2023/04/30 01:48:45;;;;;;;15.17;12.30;;;12.30;99.90;;;;;;10517748;28;20219;-75
2023/04/30 01:53:46;;;;;;;13.83;12.17;;;12.30;99.90;;;;;;10499662;28;20218;-76
2023/04/30 01:58:48;;;;;;;14.03;12.53;;;12.20;99.90;;;;;;10517275;28;20227;-74
2023/04/30 02:03:49;;;;;;;15.07;13.43;;;12.20;99.90;;;;;;10518110;28;20223;-75
2023/04/30 02:08:49;;;;;;;14.10;12.70;;;12.20;99.90;;;;;;10516028;28;20608;-75
2023/04/30 02:13:50;;;;;;;14.50;12.97;;;12.10;99.90;;;;;;10512659;28;20218;-74
2023/04/30 02:18:51;;;;;;;13.57;12.07;;;12.10;99.90;;;;;;10512377;28;20261;-73
2023/04/30 02:23:54;;;;;;;15.63;14.03;;;12.10;99.90;;;;;;10512666;28;20725;-74
2023/04/30 02:28:55;;;;;;;18.10;14.83;;;12.10;99.90;;;;;;10516191;28;20265;-74
2023/04/30 02:33:55;;;;;;;18.40;14.40;;;12.10;99.90;;;;;;10518161;28;20259;-74
2023/04/30 02:38:56;;;;;;;16.00;14.03;;;12.00;99.90;;;;;;10492822;28;20314;-74
2023/04/30 02:43:56;;;;;;;15.97;14.27;;;12.10;99.90;;;;;;10494844;28;20314;-74
2023/04/30 02:48:57;;;;;;;16.10;14.07;;;11.90;99.90;;;;;;10492692;28;20306;-74
2023/04/30 02:53:57;;;;;;;16.37;14.80;;;11.90;99.90;;;;;;10501922;28;20689;-74
2023/04/30 02:58:58;;;;;;;16.77;14.77;;;11.80;99.90;;;;;;10518754;28;20211;-74
2023/04/30 03:03:58;;;;;;;17.27;15.47;;;11.80;99.90;;;;;;10491374;28;20260;-74
2023/04/30 03:08:59;;;;;;;17.00;15.23;;;11.80;99.90;;;;;;10512019;28;20246;-74
2023/04/30 03:14:00;;;;;;;17.17;15.37;;;11.70;99.90;;;;;;10522068;28;20253;-74
2023/04/30 03:19:00;;;;;;;17.80;15.90;;;11.70;99.90;;;;;;10513737;28;20725;-75
2023/04/30 03:24:01;;;;;;;20.80;16.73;;;11.70;99.90;;;;;;10490127;28;20599;-71
2023/04/30 03:29:02;;;;;;;17.53;15.80;;;11.70;99.90;;;;;;10511468;28;20835;-71
2023/04/30 03:34:02;;;;;;;17.17;15.50;;;11.60;99.90;;;;;;10489744;28;20217;-70
2023/04/30 03:39:04;;;;;;;17.03;15.23;;;11.70;99.90;;;;;;10493244;28;20229;-71
2023/04/30 03:44:04;;;;;;;17.17;15.37;;;11.60;99.90;;;;;;10507440;28;20308;-71
2023/04/30 03:49:05;;;;;;;18.20;16.17;;;11.60;99.90;;;;;;10493115;28;20305;-71
2023/04/30 03:54:06;;;;;;;16.33;14.63;;;11.50;99.90;;;;;;10516862;28;20217;-71
2023/04/30 03:59:06;;;;;;;17.77;15.40;;;11.50;99.90;;;;;;10515576;28;20708;-71
2023/04/30 04:04:08;;;;;;;16.90;15.17;;;11.40;99.90;;;;;;10514898;28;20743;-71
2023/04/30 04:09:08;;;;;;;19.07;15.33;;;11.40;99.90;;;;;;10488361;28;20257;-71
2023/04/30 04:14:09;;;;;;;17.33;15.47;;;11.40;99.90;;;;;;10519749;28;20556;-71
2023/04/30 04:19:11;;;;;;;17.03;15.33;;;11.30;99.90;;;;;;10494539;28;20823;-71
2023/04/30 04:24:12;;;;;;;17.10;15.20;;;11.30;99.90;;;;;;10508413;28;20231;-70
2023/04/30 04:29:12;;;;;;;17.60;15.23;;;11.40;99.90;;;;;;10522645;28;20690;-71
2023/04/30 04:34:13;;;;;;;18.33;16.43;;;11.30;99.90;;;;;;10495200;28;20272;-70
2023/04/30 04:39:14;;;;;;;19.60;15.13;;;11.30;99.90;;;;;;10502334;28;20226;-71
2023/04/30 04:44:14;;;;;;;15.87;14.03;;;11.20;99.90;;;;;;10513305;28;20242;-70
2023/04/30 04:49:15;;;;;;;16.23;14.60;;;11.30;99.90;;;;;;10509262;28;20222;-70
2023/04/30 04:54:15;;;;;;;15.87;14.03;;;11.30;99.90;;;;;;10512694;28;20219;-72
2023/04/30 04:59:17;;;;;;;15.70;14.00;;;11.40;99.90;;;;;;10519191;28;20276;-70
2023/04/30 05:04:18;;;;;;;16.43;14.73;;;11.40;99.90;;;;;;10501262;28;20225;-70
2023/04/30 05:09:18;;;;;;;15.93;14.20;;;11.50;99.90;;;;;;10519676;28;20219;-71
2023/04/30 05:14:19;;;;;;;15.93;14.00;;;11.50;99.90;;;;;;10501016;28;20233;-70
2023/04/30 05:19:21;;;;;;;16.20;13.43;;;11.50;99.90;;;;;;10518464;28;20993;-70
2023/04/30 05:24:21;;;;;;;18.10;13.67;;;11.60;99.90;;;;;;10518457;28;20245;-69
2023/04/30 05:29:22;;;;;;;15.13;13.60;;;11.70;99.90;;;;;;10510349;28;20238;-70
2023/04/30 05:34:22;;;;;;;15.80;14.20;;;11.80;99.90;;;;;;10518053;28;20222;-70
2023/04/30 05:39:23;;;;;;;20.83;14.27;;;12.10;99.90;;;;;;10492139;28;20280;-70
2023/04/30 05:44:23;;;;;;;16.43;12.63;;;12.30;99.90;;;;;;10516693;28;20226;-70
2023/04/30 05:49:24;;;;;;;14.43;12.57;;;12.80;99.90;;;;;;10493207;28;20223;-71
2023/04/30 05:54:28;;;;;;;16.17;13.23;;;13.20;99.90;;;;;;10500655;28;20227;-70
2023/04/30 05:59:29;;;;;;;15.93;12.50;;;13.20;99.90;;;;;;10519550;28;20895;-69
2023/04/30 06:04:30;;;;;;;12.60;11.30;;;13.10;99.90;;;;;;10515277;28;20321;-70
2023/04/30 06:09:31;;;;;;;11.57;10.43;;;14.40;99.90;;;;;;10517648;28;20401;-70
2023/04/30 06:14:31;;;;;;;14.20;10.97;;;16.40;99.90;;;;;;10517598;28;20244;-70
2023/04/30 06:19:32;;;;;;;11.57;9.90;;;16.30;99.90;;;;;;10492186;28;20222;-72
2023/04/30 06:24:32;;;;;;;10.63;9.53;;;17.20;99.90;;;;;;10498244;28;20623;-71
2023/04/30 06:29:33;;;;;;;10.93;9.60;;;18.50;99.90;;;;;;10514159;28;20245;-70
2023/04/30 06:34:34;;;;;;;11.47;9.50;;;19.70;99.90;;;;;;10515458;28;20225;-71
2023/04/30 06:39:35;;;;;;;9.40;8.50;;;20.60;99.20;;;;;;10491577;28;20219;-72
2023/04/30 06:44:35;;;;;;;9.53;8.50;;;21.50;95.80;;;;;;10491088;28;20230;-72
2023/04/30 06:49:36;;;;;;;9.20;8.23;;;21.80;93.30;;;;;;10494816;28;20229;-70
2023/04/30 06:54:36;;;;;;;9.30;6.97;;;22.50;89.30;;;;;;10488706;28;20225;-71
2023/04/30 06:59:38;;;;;;;10.00;6.93;;;21.50;89.40;;;;;;10508751;28;20303;-72
2023/04/30 07:04:38;;;;;;;10.27;7.30;;;19.20;92.50;;;;;;10502031;28;20241;-72
2023/04/30 07:09:39;;;;;;;10.97;7.47;;;17.70;94.90;;;;;;10491055;28;20237;-71
2023/04/30 07:14:40;;;;;;;8.30;5.20;;;17.00;97.90;;;;;;10512104;28;20226;-70
2023/04/30 07:19:41;;;;;;;7.43;4.90;;;17.30;97.80;;;;;;10516756;28;20233;-70
2023/04/30 07:24:41;;;;;;;5.53;3.90;;;17.50;96.10;;;;;;10506111;28;20298;-71
2023/04/30 07:29:43;;;;;;;4.87;4.20;;;19.60;91.90;;;;;;10500919;28;20223;-71
2023/04/30 07:34:43;;;;;;;4.77;3.70;;;21.60;83.40;;;;;;10488668;28;20226;-71
2023/04/30 07:39:47;;;;;;;4.27;3.87;;;22.70;76.80;;;;;;10490819;28;20264;-70
2023/04/30 07:44:51;;;;;;;4.23;3.67;;;23.50;69.70;;;;;;10509864;28;20322;-71
2023/04/30 07:49:52;;;;;;;6.33;3.93;;;24.60;62.60;;;;;;10515280;28;20219;-71
2023/04/30 07:54:52;;;;;;;3.63;3.33;;;24.60;61.30;;;;;;10494473;28;20232;-71
2023/04/30 07:59:53;;;;;;;3.83;3.27;;;24.70;59.60;;;;;;10513319;28;20256;-72
2023/04/30 08:04:54;;;;;;;4.80;3.50;;;24.70;57.40;;;;;;10491974;28;20225;-71
2023/04/30 08:09:54;;;;;;;5.63;4.17;;;25.40;57.40;;;;;;10517854;28;20214;-71
2023/04/30 08:15:03;;;;;;;4.30;3.57;;;27.20;53.50;;;;;;10528644;28;20301;-71
2023/04/30 08:20:04;;;;;;;5.07;3.20;;;27.40;51.40;;;;;;10497556;28;20314;-71
2023/04/30 08:25:05;;;;;;;3.73;3.20;;;27.90;49.80;;;;;;10526485;28;20222;-71
2023/04/30 08:30:07;;;;;;;6.50;3.17;;;28.00;47.90;;;;;;10522644;28;20183;-69
2023/04/30 08:35:08;;;;;;;6.83;2.23;;;26.00;51.60;;;;;;10525104;28;20693;-71
2023/04/30 08:40:10;;;;;;;5.73;2.90;;;26.00;49.10;;;;;;10495315;28;20199;-69
2023/04/30 08:45:13;;;;;;;3.13;2.53;;;26.00;50.20;;;;;;10511194;28;20190;-71
2023/04/30 08:50:14;;;;;;;2.47;2.10;;;26.40;48.00;;;;;;10518965;28;20227;-72
2023/04/30 08:55:14;;;;;;;1.93;1.77;;;26.50;45.80;;;;;;10498611;28;20231;-71
2023/04/30 09:00:15;;;;;;;2.70;1.67;;;26.00;46.20;;;;;;10520049;28;20621;-70
2023/04/30 09:05:15;;;;;;;3.03;1.70;;;25.30;46.80;;;;;;10494229;28;20669;-70
2023/04/30 09:10:18;;;;;;;2.10;1.57;;;26.10;46.30;;;;;;10519187;28;20193;-70
2023/04/30 09:15:18;;;;;;;3.47;1.80;;;27.90;45.50;;;;;;10493170;28;20183;-69
2023/04/30 09:20:19;;;;;;;1.87;1.70;;;29.40;41.60;;;;;;10507319;28;20189;-71
2023/04/30 09:25:41;;;;;;;1.50;1.40;;;29.80;40.30;;;;;;10501005;28;20198;-71
2023/04/30 09:30:42;;;;;;;3.73;1.63;;;30.20;40.00;;;;;;10513567;28;20218;-71
2023/04/30 09:35:43;;;;;;;2.50;1.40;;;29.60;38.70;;;;;;10508408;28;20242;-71
2023/04/30 09:40:44;;;;;;;2.20;0.93;;;29.80;38.80;;;;;;10497435;28;20325;-71
2023/04/30 09:45:48;;;;;;;2.83;1.43;;;30.00;38.30;;;;;;10495257;28;20256;-71
2023/04/30 09:50:50;;;;;;;2.90;1.47;;;30.10;38.00;;;;;;10496101;28;20219;-72
2023/04/30 09:55:50;;;;;;;3.17;1.30;;;29.80;37.50;;;;;;10525676;28;20280;-71
2023/04/30 10:00:54;;;;;;;2.10;1.00;;;29.80;37.60;;;;;;10498923;28;20237;-71
2023/04/30 10:05:55;;;;;;;1.73;0.97;;;30.60;35.60;;;;;;10494913;28;20702;-71
2023/04/30 10:11:07;;;;;;;2.83;1.10;;;32.40;33.20;;;;;;10517475;28;20603;-70
2023/04/30 10:16:25;;;;;;;1.17;0.87;;;30.50;34.70;;;;;;10507310;28;20682;-71
2023/04/30 10:21:26;;;;;;;2.03;1.00;;;29.90;35.10;;;;;;10509333;28;20228;-70
2023/04/30 10:26:28;;;;;;;1.33;0.73;;;29.30;35.60;;;;;;10520098;28;20219;-71
2023/04/30 10:31:30;;;;;;;1.03;0.50;;;30.60;33.10;;;;;;10509302;28;20220;-71
2023/04/30 10:36:49;;;;;;;1.10;0.80;;;29.30;32.40;;;;;;10493718;28;20383;-70
2023/04/30 10:41:50;;;;;;;2.40;0.60;;;28.30;34.30;;;;;;10515762;28;20215;-70
2023/04/30 10:46:58;;;;;;;0.80;0.73;;;28.20;35.30;;;;;;10494679;28;20621;-70
2023/04/30 10:52:02;;;;;;;0.60;0.60;;;27.20;34.80;;;;;;10504294;28;20222;-71
2023/04/30 10:57:13;;;;;;;0.70;0.60;;;27.80;35.00;;;;;;10509810;28;20219;-70
2023/04/30 11:02:17;;;;;;;1.10;0.80;;;27.70;36.40;;;;;;10496374;28;20304;-70
2023/04/30 11:07:32;;;;;;;0.77;0.60;;;27.60;34.80;;;;;;10507673;28;20305;-72
2023/04/30 11:12:33;;;;;;;1.23;0.70;;;27.80;35.00;;;;;;10490188;28;20253;-70
2023/04/30 11:17:33;;;;;;;1.07;0.60;;;27.60;35.40;;;;;;10513789;28;20697;-71
2023/04/30 11:22:37;;;;;;;2.33;0.70;;;27.40;35.80;;;;;;10505941;28;20231;-71
2023/04/30 11:27:41;;;;;;;1.37;0.73;;;26.80;37.40;;;;;;10496925;28;20215;-72
2023/04/30 11:32:48;;;;;;;0.70;0.70;;;26.40;38.00;;;;;;10493567;28;20249;-70
2023/04/30 11:37:49;;;;;;;0.70;0.70;;;26.20;38.20;;;;;;10491510;28;20218;-71
2023/04/30 11:42:50;;;;;;;0.90;0.83;;;24.80;40.80;;;;;;10491474;28;20280;-72
2023/04/30 11:47:53;;;;;;;1.30;1.10;;;25.00;42.50;;;;;;10492076;28;20217;-71
2023/04/30 11:53:02;;;;;;;2.40;1.17;;;24.20;42.90;;;;;;10516953;28;20233;-71
2023/04/30 11:58:03;;;;;;;0.80;0.70;;;23.60;43.50;;;;;;10490046;28;20216;-70
2023/04/30 12:03:03;;;;;;;1.73;0.80;;;23.60;44.90;;;;;;10517222;28;20238;-70
2023/04/30 12:08:11;;;;;;;1.03;0.60;;;23.40;44.80;;;;;;10501709;28;20219;-71
2023/04/30 12:13:15;;;;;;;0.70;0.60;;;22.90;45.70;;;;;;10512381;28;20713;-71
2023/04/30 12:18:16;;;;;;;1.93;0.93;;;22.30;47.40;;;;;;10513071;28;20222;-70
2023/04/30 12:23:17;;;;;;;0.40;0.40;;;22.20;46.70;;;;;;10510195;28;20588;-70
2023/04/30 12:28:22;;;;;;;0.83;0.43;;;22.20;45.40;;;;;;10513277;28;20222;-70
2023/04/30 12:33:23;;;;;;;1.73;0.50;;;21.50;44.00;;;;;;10495848;28;20696;-70
2023/04/30 12:38:24;;;;;;;0.50;0.40;;;21.20;47.00;;;;;;10503203;28;20217;-70
2023/04/30 12:43:24;;;;;;;3.17;1.10;;;21.30;46.00;;;;;;10504600;28;20264;-70
2023/04/30 12:48:25;;;;;;;2.10;0.70;;;21.40;47.70;;;;;;10510873;28;20235;-71
2023/04/30 12:53:26;;;;;;;4.07;0.67;;;21.40;48.00;;;;;;10499029;28;20626;-72
2023/04/30 12:58:30;;;;;;;1.20;0.50;;;21.50;45.90;;;;;;10493226;28;20211;-70
2023/04/30 13:03:30;;;;;;;1.90;0.80;;;21.40;46.00;;;;;;10517914;28;20377;-71
2023/04/30 13:08:31;;;;;;;2.40;0.50;;;20.90;46.20;;;;;;10513133;28;20373;-71
2023/04/30 13:13:32;;;;;;;2.90;0.50;;;21.10;46.10;;;;;;10518323;28;20226;-71
2023/04/30 13:18:32;;;;;;;0.47;0.47;;;20.90;45.70;;;;;;10501185;28;20225;-72
2023/04/30 13:23:33;;;;;;;0.60;0.50;;;20.70;47.30;;;;;;10492639;28;20223;-71
2023/04/30 13:28:34;;;;;;;1.53;0.53;;;20.50;46.20;;;;;;10518608;28;20634;-69
2023/04/30 13:33:34;;;;;;;1.43;0.43;;;20.70;47.50;;;;;;10499111;28;20697;-72
2023/04/30 13:38:35;;;;;;;0.73;0.57;;;20.70;46.90;;;;;;10512176;28;20226;-71
2023/04/30 13:43:37;;;;;;;2.27;0.60;;;21.10;47.20;;;;;;10516291;28;20325;-71
2023/04/30 13:48:37;;;;;;;0.93;0.60;;;20.90;47.30;;;;;;10512670;28;20330;-71
2023/04/30 13:53:39;;;;;;;0.90;0.60;;;21.10;46.90;;;;;;10494478;28;20286;-70
2023/04/30 13:58:39;;;;;;;0.60;0.50;;;21.40;47.30;;;;;;10515709;28;20274;-71
2023/04/30 14:03:40;;;;;;;0.70;0.60;;;21.10;47.50;;;;;;10493730;28;20379;-71
2023/04/30 14:08:40;;;;;;;0.77;0.40;;;21.20;47.90;;;;;;10497262;28;20227;-71
2023/04/30 14:13:41;;;;;;;0.97;0.50;;;21.10;46.50;;;;;;10521631;28;20249;-71
2023/04/30 14:18:42;;;;;;;0.50;0.50;;;21.00;47.20;;;;;;10496356;28;20636;-71
2023/04/30 14:23:45;;;;;;;1.13;0.50;;;20.90;48.30;;;;;;10511508;28;20226;-71
2023/04/30 14:28:49;;;;;;;1.40;0.43;;;21.10;48.70;;;;;;10506490;28;20225;-71
2023/04/30 14:33:49;;;;;;;3.30;0.60;;;20.40;49.30;;;;;;10512785;28;20227;-70
2023/04/30 14:38:50;;;;;;;0.80;0.47;;;20.60;49.30;;;;;;10517791;28;20305;-71
2023/04/30 14:43:51;;;;;;;0.50;0.40;;;20.70;48.90;;;;;;10516351;28;20234;-69
2023/04/30 14:48:53;;;;;;;0.57;0.50;;;21.00;48.90;;;;;;10501056;28;20218;-71
2023/04/30 14:53:53;;;;;;;0.60;0.60;;;20.90;48.50;;;;;;10493452;28;20215;-71
2023/04/30 14:58:54;;;;;;;0.40;0.40;;;20.50;48.30;;;;;;10483261;28;20229;-71
2023/04/30 15:03:54;;;;;;;0.60;0.47;;;20.20;49.50;;;;;;10515584;28;20598;-69
2023/04/30 15:08:55;;;;;;;1.73;0.60;;;20.10;49.80;;;;;;10492529;28;20298;-71
2023/04/30 15:13:56;;;;;;;0.70;0.70;;;20.10;50.70;;;;;;10493776;28;20352;-70
2023/04/30 15:18:59;;;;;;;2.03;0.80;;;20.10;50.80;;;;;;10491955;28;20227;-70
2023/04/30 15:23:59;;;;;;;2.33;0.60;;;20.40;50.30;;;;;;10494369;28;20659;-71
2023/04/30 15:29:00;;;;;;;1.87;0.50;;;20.60;50.50;;;;;;10491341;28;20215;-70
2023/04/30 15:34:17;;;;;;;0.73;0.60;;;20.60;50.00;;;;;;10506444;28;20242;-71
2023/04/30 15:39:33;;;;;;;0.40;0.40;;;20.40;50.20;;;;;;10513994;28;20249;-72
2023/04/30 15:44:34;;;;;;;0.73;0.50;;;19.90;50.50;;;;;;10496629;28;20273;-70
2023/04/30 15:49:35;;;;;;;0.60;0.60;;;19.70;51.10;;;;;;10511988;28;20245;-70
2023/04/30 16:00:25;;;;;;;1.17;0.53;;;19.70;52.20;;;;;;10480552;28;20229;-73
2023/04/30 16:05:53;;;;;;;2.20;0.40;;;19.80;50.20;;;;;;10495088;28;20574;-72
2023/04/30 16:10:53;;;;;;;2.73;0.40;;;19.70;50.60;;;;;;10497128;28;20227;-71
2023/04/30 16:15:54;;;;;;;1.63;0.80;;;19.50;51.00;;;;;;10523328;28;20218;-70
2023/04/30 16:21:19;;;;;;;0.70;0.70;;;19.50;52.00;;;;;;10497765;28;20234;-72
2023/04/30 16:26:24;;;;;;;1.23;0.70;;;19.50;52.10;;;;;;10496433;28;20219;-70
2023/04/30 16:31:25;;;;;;;1.40;1.10;;;19.30;51.80;;;;;;10495383;28;20230;-72
2023/04/30 16:36:26;;;;;;;1.00;0.60;;;19.30;52.50;;;;;;10490554;28;20218;-72
2023/04/30 16:41:36;;;;;;;0.53;0.53;;;19.20;51.90;;;;;;10509866;28;20248;-71
2023/04/30 16:47:06;;;;;;;0.70;0.70;;;19.10;52.50;;;;;;10516829;28;20221;-71
2023/04/30 16:52:41;;;;;;;0.67;0.67;;;19.00;53.10;;;;;;10481128;28;20229;-73
2023/04/30 16:57:57;;;;;;;;;;;;;;;;;;;;;
2023/04/30 17:03:01;;;;;;;0.70;0.70;;;18.80;53.90;;;;;;10503137;28;20238;-71
2023/04/30 17:08:19;;;;;;;;;;;;;;;;;;;;;
2023/04/30 17:13:23;;;;;;;0.97;0.80;;;18.90;54.60;;;;;;10499574;28;20230;-70
2023/04/30 17:18:23;;;;;;;0.83;0.50;;;18.80;54.40;;;;;;10501288;28;20229;-71
2023/04/30 17:24:10;;;;;;;0.87;0.70;;;18.80;53.70;;;;;;10501560;28;20222;-70
2023/04/30 17:29:10;;;;;;;1.00;0.70;;;18.70;53.80;;;;;;10500184;28;20230;-71
2023/04/30 17:34:11;;;;;;;2.83;0.90;;;18.60;54.30;;;;;;10494300;28;20234;-71
2023/04/30 17:39:12;;;;;;;1.80;1.23;;;18.60;54.30;;;;;;10502682;28;20313;-71
2023/04/30 17:44:12;;;;;;;3.43;1.50;;;18.50;55.90;;;;;;10493741;28;20665;-70
2023/04/30 17:49:13;;;;;;;1.77;0.90;;;18.40;57.20;;;;;;10494591;28;20246;-70
2023/04/30 17:54:13;;;;;;;1.43;0.90;;;18.30;58.90;;;;;;10510125;28;20221;-71
2023/04/30 17:59:14;;;;;;;2.47;1.47;;;18.20;59.60;;;;;;10517451;28;20221;-71
2023/04/30 18:04:18;;;;;;;1.87;1.17;;;18.00;58.80;;;;;;10498750;28;20229;-70
2023/04/30 18:09:19;;;;;;;3.13;1.53;;;18.00;59.90;;;;;;10518020;28;20221;-70
2023/04/30 18:14:21;;;;;;;2.80;1.57;;;17.90;61.30;;;;;;10491429;28;20278;-72
2023/04/30 18:19:21;;;;;;;2.30;1.97;;;17.70;62.20;;;;;;10524088;28;20361;-70
2023/04/30 18:24:26;;;;;;;2.03;1.30;;;17.50;61.60;;;;;;10515333;28;20704;-71
2023/04/30 18:29:27;;;;;;;1.13;1.03;;;17.40;61.90;;;;;;10498247;28;20589;-70
2023/04/30 18:34:27;;;;;;;1.37;1.27;;;17.40;62.60;;;;;;10491639;28;20229;-71
2023/04/30 18:39:30;;;;;;;1.03;0.90;;;17.20;62.60;;;;;;10506025;28;20224;-71
2023/04/30 18:44:31;;;;;;;1.23;1.13;;;17.00;62.60;;;;;;10499753;28;20317;-70
2023/04/30 18:49:31;;;;;;;1.60;1.00;;;16.80;63.90;;;;;;10506467;28;20261;-70
2023/04/30 18:54:32;;;;;;;2.20;1.80;;;16.70;64.20;;;;;;10512392;28;20322;-70
2023/04/30 18:59:43;;;;;;;;;;;;;;;;;;;;;
2023/04/30 19:04:44;;;;;;;2.50;1.20;;;16.50;66.50;;;;;;10510069;28;20223;-71
2023/04/30 19:09:47;;;;;;;1.07;1.00;;;16.40;67.10;;;;;;10512372;28;20227;-70
2023/04/30 19:14:47;;;;;;;2.63;1.40;;;16.30;67.40;;;;;;10492273;28;20223;-71
2023/04/30 19:19:49;;;;;;;1.63;1.53;;;16.20;68.30;;;;;;10511541;28;20729;-71
2023/04/30 19:24:50;;;;;;;1.50;1.40;;;16.10;68.70;;;;;;10491981;28;20224;-71
2023/04/30 19:29:56;;;;;;;2.07;1.43;;;16.00;69.30;;;;;;10522694;28;20308;-70
2023/04/30 19:34:57;;;;;;;1.30;1.20;;;15.90;69.90;;;;;;10501711;28;20647;-69
2023/04/30 19:39:58;;;;;;;4.20;1.30;;;15.80;70.70;;;;;;10510435;28;20241;-71
2023/04/30 19:44:58;;;;;;;1.43;1.00;;;15.80;71.50;;;;;;10493212;28;20944;-71
2023/04/30 19:49:59;;;;;;;1.63;1.40;;;15.70;72.20;;;;;;10509731;28;20311;-71
2023/04/30 19:55:00;;;;;;;1.67;1.57;;;15.50;73.10;;;;;;10511497;28;20443;-71
2023/04/30 20:00:03;;;;;;;1.50;1.40;;;15.40;74.10;;;;;;10499039;28;20221;-71
2023/04/30 20:05:05;;;;;;;1.70;1.60;;;15.30;74.60;;;;;;10503581;28;20223;-70
2023/04/30 20:10:08;;;;;;;3.00;1.63;;;15.20;75.30;;;;;;10527104;28;20235;-71
2023/04/30 20:15:09;;;;;;;2.40;1.50;;;15.10;76.10;;;;;;10522917;28;20178;-70
2023/04/30 20:20:11;;;;;;;3.63;1.80;;;15.10;76.80;;;;;;10502005;28;20715;-70
2023/04/30 20:25:12;;;;;;;2.47;1.60;;;15.10;77.40;;;;;;10521397;28;20184;-71
2023/04/30 20:30:12;;;;;;;2.30;2.10;;;15.10;78.20;;;;;;10514346;28;20195;-70
2023/04/30 20:35:13;;;;;;;1.87;1.70;;;15.00;78.60;;;;;;10519724;28;20201;-72
2023/04/30 20:40:13;;;;;;;3.20;1.77;;;15.00;79.00;;;;;;10510495;28;20191;-71
2023/04/30 20:45:14;;;;;;;2.13;1.67;;;15.00;79.50;;;;;;10495088;28;20222;-70
2023/04/30 20:50:15;;;;;;;1.77;1.53;;;14.90;80.30;;;;;;10520251;28;20175;-71
2023/04/30 20:55:16;;;;;;;2.03;1.73;;;14.80;80.80;;;;;;10500373;28;20557;-70
2023/04/30 21:00:17;;;;;;;2.20;1.60;;;14.70;81.50;;;;;;10512164;28;20175;-71
2023/04/30 21:05:17;;;;;;;1.40;1.30;;;14.70;82.10;;;;;;10499811;28;20215;-71
2023/04/30 21:10:18;;;;;;;2.43;1.73;;;14.60;82.90;;;;;;10501475;28;20186;-71
2023/04/30 21:15:18;;;;;;;1.90;1.50;;;14.50;84.00;;;;;;10511263;28;20187;-71
2023/04/30 21:20:19;;;;;;;1.53;1.43;;;14.50;84.40;;;;;;10518857;28;20181;-70
2023/04/30 21:25:20;;;;;;;3.60;1.90;;;14.50;85.10;;;;;;10492039;28;20209;-71
2023/04/30 21:30:21;;;;;;;2.20;1.50;;;14.40;86.40;;;;;;10518332;28;20175;-71
2023/04/30 21:35:23;;;;;;;1.50;1.40;;;14.40;86.20;;;;;;10492421;28;20184;-71
2023/04/30 21:40:24;;;;;;;3.27;1.60;;;14.40;87.30;;;;;;10518431;28;20259;-71
2023/04/30 21:45:33;;;;;;;3.57;2.07;;;14.40;86.80;;;;;;10492128;28;20603;-71
2023/04/30 21:50:34;;;;;;;2.63;1.83;;;14.40;87.20;;;;;;10498478;28;20218;-72
2023/04/30 21:55:35;;;;;;;2.40;1.40;;;14.40;87.70;;;;;;10493964;28;20214;-71
2023/04/30 22:00:37;;;;;;;2.10;1.40;;;14.40;87.90;;;;;;10509547;28;20229;-71
2023/04/30 22:05:38;;;;;;;2.23;1.50;;;14.30;88.50;;;;;;10501639;28;20614;-71
2023/04/30 22:10:39;;;;;;;3.07;2.30;;;14.30;88.50;;;;;;10497315;28;20305;-71
2023/04/30 22:15:40;;;;;;;3.47;1.80;;;14.30;88.70;;;;;;10523504;28;20248;-71
2023/04/30 22:20:40;;;;;;;2.77;1.70;;;14.20;88.80;;;;;;10492848;28;20636;-70
2023/04/30 22:25:41;;;;;;;2.57;1.33;;;14.20;88.60;;;;;;10503123;28;20279;-69
2023/04/30 22:30:42;;;;;;;2.57;1.40;;;14.10;89.60;;;;;;10510681;28;20294;-71
2023/04/30 22:35:42;;;;;;;3.13;1.60;;;14.10;88.80;;;;;;10495024;28;20231;-72
2023/04/30 22:40:44;;;;;;;2.10;1.70;;;14.10;89.20;;;;;;10512269;28;20218;-71
2023/04/30 22:45:44;;;;;;;2.60;1.70;;;14.00;89.90;;;;;;10515634;28;20241;-70
2023/04/30 22:50:45;;;;;;;1.70;1.60;;;13.90;90.10;;;;;;10516603;28;20250;-70
2023/04/30 22:55:49;;;;;;;2.70;1.77;;;13.80;90.30;;;;;;10493730;28;20302;-70
2023/04/30 23:00:50;;;;;;;2.53;1.80;;;13.70;90.50;;;;;;10515082;28;20215;-71
2023/04/30 23:05:50;;;;;;;1.67;1.50;;;13.60;90.60;;;;;;10510656;28;20241;-71
2023/04/30 23:10:53;;;;;;;1.93;1.83;;;13.50;90.80;;;;;;10510588;28;20272;-71
2023/04/30 23:15:57;;;;;;;3.40;1.77;;;13.40;90.80;;;;;;10508929;28;20273;-71
2023/04/30 23:20:58;;;;;;;4.43;1.70;;;13.50;90.70;;;;;;10496858;28;20585;-70
2023/04/30 23:25:59;;;;;;;4.57;1.70;;;13.50;90.70;;;;;;10493508;28;20218;-72
2023/04/30 23:31:00;;;;;;;3.37;1.70;;;13.40;90.90;;;;;;10509859;28;20264;-71
2023/04/30 23:36:00;;;;;;;3.93;1.77;;;13.30;90.90;;;;;;10519140;28;20210;-71
2023/04/30 23:41:02;;;;;;;3.70;1.60;;;13.20;90.90;;;;;;10491259;28;20704;-71
2023/04/30 23:46:02;;;;;;;1.87;1.70;;;13.30;91.20;;;;;;10511736;28;20305;-70
2023/04/30 23:51:04;;;;;;;3.13;1.60;;;13.20;91.20;;;;;;10490778;28;20310;-70
2023/04/30 23:56:08;;;;;;;1.70;1.60;;;13.10;91.30;;;;;;10493571;28;20261;-70
